createdAt,value
2023-05-09T00:00:14.804Z,42.70
2023-05-09T00:02:45.955Z,50.97
2023-05-09T00:05:15.275Z,44.67
2023-05-09T00:07:43.375Z,46.28
2023-05-09T00:10:11.801Z,46.20
2023-05-09T00:12:39.790Z,45.03
2023-05-09T00:15:09.996Z,49.97
2023-05-09T00:17:38.603Z,47.00
2023-05-09T00:20:11.823Z,45.47
2023-05-09T00:22:40.449Z,46.03
2023-05-09T00:25:09.849Z,44.78
2023-05-09T00:27:38.001Z,45.35
2023-05-09T00:30:07.223Z,44.72
2023-05-09T00:32:36.899Z,39.15
2023-05-09T00:35:05.257Z,39.95
2023-05-09T00:37:33.144Z,43.40
2023-05-09T00:40:01.060Z,41.67
2023-05-09T00:42:28.968Z,42.63
2023-05-09T00:44:56.810Z,40.20
2023-05-09T00:47:25.199Z,42.90
2023-05-09T00:49:54.568Z,39.35
2023-05-09T00:52:25.687Z,40.03
2023-05-09T00:54:54.141Z,34.83
2023-05-09T00:57:22.140Z,39.45
2023-05-09T00:59:50.356Z,33.83
2023-05-09T01:02:19.019Z,36.00
2023-05-09T01:04:47.468Z,33.83
2023-05-09T01:07:26.538Z,36.25
2023-05-09T01:10:01.685Z,29.98
2023-05-09T01:12:38.624Z,33.95
2023-05-09T01:15:13.570Z,30.08
2023-05-09T01:17:50.326Z,29.48
2023-05-09T01:20:25.123Z,30.60
2023-05-09T01:23:08.281Z,28.97
2023-05-09T01:25:58.627Z,26.70
2023-05-09T01:28:45.680Z,29.87
2023-05-09T01:31:17.008Z,27.70
2023-05-09T01:33:47.550Z,26.43
2023-05-09T01:36:18.410Z,25.38
2023-05-09T01:38:47.458Z,29.13
2023-05-09T01:41:17.839Z,28.00
2023-05-09T01:43:49.581Z,29.27
2023-05-09T01:46:20.463Z,26.23
2023-05-09T01:48:50.885Z,25.05
2023-05-09T01:51:20.068Z,25.83
2023-05-09T01:53:50.551Z,25.27
2023-05-09T01:56:19.983Z,27.63
2023-05-09T01:58:50.047Z,24.40
2023-05-09T02:01:20.760Z,24.60
2023-05-09T02:03:52.442Z,26.48
2023-05-09T02:06:23.197Z,24.65
2023-05-09T02:08:52.089Z,25.55
2023-05-09T02:11:19.992Z,22.33
2023-05-09T02:13:47.952Z,21.23
2023-05-09T02:16:16.269Z,28.08
2023-05-09T02:18:45.543Z,24.27
2023-05-09T02:21:13.627Z,21.50
2023-05-09T02:23:41.718Z,22.30
2023-05-09T02:26:09.940Z,21.67
2023-05-09T02:28:39.331Z,22.92
2023-05-09T02:31:08.827Z,22.88
2023-05-09T02:33:38.951Z,21.70
2023-05-09T02:36:09.648Z,20.10
2023-05-09T02:38:37.886Z,22.15
2023-05-09T02:41:05.908Z,23.20
2023-05-09T02:43:33.866Z,24.35
2023-05-09T02:46:01.736Z,19.37
2023-05-09T02:48:29.676Z,21.42
2023-05-09T02:50:58.252Z,19.52
2023-05-09T02:53:27.512Z,18.50
2023-05-09T02:55:55.427Z,17.23
2023-05-09T02:58:23.351Z,19.42
2023-05-09T03:00:51.189Z,18.20
2023-05-09T03:03:19.281Z,18.13
2023-05-09T03:05:47.154Z,19.77
2023-05-09T03:08:14.984Z,16.30
2023-05-09T03:10:44.191Z,19.27
2023-05-09T03:13:12.125Z,17.60
2023-05-09T03:15:40.223Z,15.00
2023-05-09T03:18:08.190Z,17.27
2023-05-09T03:20:36.128Z,20.17
2023-05-09T03:23:04.003Z,18.65
2023-05-09T03:25:31.952Z,17.88
2023-05-09T03:28:01.224Z,20.60
2023-05-09T03:30:29.152Z,16.13
2023-05-09T03:32:57.065Z,18.50
2023-05-09T03:35:25.079Z,18.35
2023-05-09T03:37:52.920Z,15.40
2023-05-09T03:40:20.815Z,16.43
2023-05-09T03:42:48.741Z,16.58
2023-05-09T03:45:18.027Z,14.70
2023-05-09T03:47:46.237Z,16.73
2023-05-09T03:50:14.240Z,13.25
2023-05-09T03:52:42.084Z,14.43
2023-05-09T03:55:11.034Z,19.30
2023-05-09T03:57:39.013Z,14.57
2023-05-09T04:00:10.002Z,16.50
2023-05-09T04:02:39.401Z,16.00
2023-05-09T04:05:07.812Z,16.48
2023-05-09T04:07:36.127Z,12.87
2023-05-09T04:10:04.225Z,15.75
2023-05-09T04:12:32.111Z,16.43
2023-05-09T04:15:00.213Z,14.23
2023-05-09T04:17:28.195Z,14.75
2023-05-09T04:19:57.437Z,13.25
2023-05-09T04:22:25.294Z,16.02
2023-05-09T04:24:53.200Z,12.02
2023-05-09T04:27:21.753Z,13.80
2023-05-09T04:29:49.764Z,15.02
2023-05-09T04:32:17.999Z,15.55
2023-05-09T04:34:45.887Z,14.80
2023-05-09T04:37:15.192Z,17.77
2023-05-09T04:39:43.420Z,15.83
2023-05-09T04:42:11.608Z,16.02
2023-05-09T04:44:39.721Z,17.23
2023-05-09T04:47:07.815Z,15.13
2023-05-09T04:49:35.701Z,15.47
2023-05-09T04:52:03.755Z,17.95
2023-05-09T04:54:32.991Z,16.85
2023-05-09T04:57:13.780Z,16.35
2023-05-09T04:59:44.813Z,19.60
2023-05-09T05:02:12.945Z,20.23
2023-05-09T05:04:41.029Z,16.70
2023-05-09T05:07:09.011Z,19.65
2023-05-09T05:09:38.269Z,21.85
2023-05-09T05:14:35.263Z,18.95
2023-05-09T05:17:03.253Z,17.60
2023-05-09T05:19:31.762Z,18.35
2023-05-09T05:21:59.635Z,19.95
2023-05-09T05:24:28.098Z,17.65
2023-05-09T05:26:57.300Z,18.83
2023-05-09T05:29:25.152Z,21.42
2023-05-09T05:31:53.065Z,16.17
2023-05-09T05:34:21.060Z,19.63
2023-05-09T05:36:49.075Z,17.35
2023-05-09T05:39:16.977Z,16.85
2023-05-09T05:41:44.908Z,18.30
2023-05-09T05:44:14.150Z,16.90
2023-05-09T05:46:42.055Z,17.63
2023-05-09T05:49:09.870Z,19.83
2023-05-09T05:51:38.460Z,17.85
2023-05-09T05:54:06.677Z,17.40
2023-05-09T05:56:34.645Z,15.67
2023-05-09T05:59:02.498Z,16.65
2023-05-09T06:01:31.692Z,17.58
2023-05-09T06:03:59.728Z,16.75
2023-05-09T06:06:28.459Z,15.80
2023-05-09T06:08:57.371Z,19.02
2023-05-09T06:11:25.528Z,17.80
2023-05-09T06:13:53.412Z,14.75
2023-05-09T06:16:22.038Z,17.48
2023-05-09T06:18:53.424Z,13.07
2023-05-09T06:21:22.978Z,17.50
2023-05-09T06:24:06.469Z,16.25
2023-05-09T06:26:38.342Z,18.63
2023-05-09T06:29:07.637Z,15.48
2023-05-09T06:31:38.628Z,16.55
2023-05-09T06:34:08.605Z,17.13
2023-05-09T06:36:36.512Z,19.43
2023-05-09T06:39:04.564Z,17.50
2023-05-09T06:41:32.562Z,15.27
2023-05-09T06:44:02.434Z,14.68
2023-05-09T06:46:30.485Z,15.48
2023-05-09T06:48:58.448Z,15.82
2023-05-09T06:51:28.046Z,17.00
2023-05-09T06:53:55.953Z,16.98
2023-05-09T06:56:24.816Z,18.90
2023-05-09T06:58:52.808Z,19.88
2023-05-09T07:01:20.756Z,13.50
2023-05-09T07:03:48.638Z,12.65
2023-05-09T07:06:16.609Z,14.10
2023-05-09T07:08:45.949Z,15.27
2023-05-09T07:11:13.850Z,14.50
2023-05-09T07:13:41.774Z,14.10
2023-05-09T07:16:09.839Z,16.80
2023-05-09T07:18:37.804Z,16.00
2023-05-09T07:21:05.696Z,13.80
2023-05-09T07:23:33.658Z,15.77
2023-05-09T07:26:02.985Z,15.27
2023-05-09T07:28:31.410Z,12.50
2023-05-09T07:30:59.282Z,13.77
2023-05-09T07:33:27.197Z,16.10
2023-05-09T07:35:55.327Z,13.18
2023-05-09T07:38:23.210Z,14.43
2023-05-09T07:40:51.143Z,12.68
2023-05-09T07:43:20.451Z,14.88
2023-05-09T07:45:48.395Z,17.30
2023-05-09T07:48:16.437Z,14.18
2023-05-09T07:50:44.354Z,12.70
2023-05-09T07:53:12.228Z,14.50
2023-05-09T07:55:40.118Z,18.40
2023-05-09T07:58:08.040Z,14.00
2023-05-09T08:00:37.409Z,12.70
2023-05-09T08:03:05.522Z,12.70
2023-05-09T08:05:33.649Z,15.00
2023-05-09T08:08:01.668Z,13.73
2023-05-09T08:10:30.611Z,13.25
2023-05-09T08:12:58.605Z,12.98
2023-05-09T08:15:26.580Z,13.15
2023-05-09T08:17:55.874Z,12.30
2023-05-09T08:20:24.261Z,15.10
2023-05-09T08:22:52.199Z,12.65
2023-05-09T08:25:20.823Z,13.70
2023-05-09T08:27:49.492Z,14.25
2023-05-09T08:30:18.275Z,12.07
2023-05-09T08:32:46.160Z,13.40
2023-05-09T08:35:15.768Z,12.65
2023-05-09T08:37:43.972Z,15.93
2023-05-09T08:40:12.319Z,13.70
2023-05-09T08:42:41.351Z,12.90
2023-05-09T08:45:11.357Z,11.53
2023-05-09T08:47:40.095Z,9.98
2023-05-09T08:50:09.700Z,9.57
2023-05-09T08:52:39.373Z,11.18
2023-05-09T08:55:07.581Z,10.45
2023-05-09T08:57:36.231Z,11.00
2023-05-09T09:00:06.181Z,9.63
2023-05-09T09:02:34.615Z,10.60
2023-05-09T09:05:02.994Z,8.80
2023-05-09T09:07:34.906Z,8.75
2023-05-09T09:10:05.017Z,7.47
2023-05-09T09:12:33.805Z,6.78
2023-05-09T09:15:05.835Z,7.63
2023-05-09T09:17:36.831Z,8.00
2023-05-09T09:20:07.025Z,7.45
2023-05-09T09:22:36.438Z,8.07
2023-05-09T09:25:06.520Z,8.57
2023-05-09T09:27:35.494Z,10.45
2023-05-09T09:30:11.031Z,6.00
2023-05-09T09:32:40.148Z,7.03
2023-05-09T09:35:09.785Z,6.53
2023-05-09T09:37:39.927Z,7.10
2023-05-09T09:40:11.189Z,9.60
2023-05-09T09:42:43.791Z,6.20
2023-05-09T09:45:13.726Z,8.75
2023-05-09T09:47:44.522Z,7.38
2023-05-09T09:50:14.620Z,7.28
2023-05-09T09:52:53.371Z,6.45
2023-05-09T09:55:24.062Z,7.35
2023-05-09T09:57:52.735Z,7.30
2023-05-09T10:00:28.300Z,6.50
2023-05-09T10:02:57.722Z,7.30
2023-05-09T10:05:27.472Z,7.65
2023-05-09T10:07:56.286Z,7.55
2023-05-09T10:10:27.892Z,6.97
2023-05-09T10:12:58.397Z,6.82
2023-05-09T10:15:28.682Z,8.38
2023-05-09T10:18:00.852Z,7.22
2023-05-09T10:20:29.750Z,8.27
2023-05-09T10:22:59.964Z,7.10
2023-05-09T10:25:38.233Z,8.40
2023-05-09T10:28:11.534Z,7.55
2023-05-09T10:30:47.514Z,6.68
2023-05-09T10:33:18.360Z,7.97
2023-05-09T10:35:48.474Z,6.72
2023-05-09T10:38:17.409Z,7.43
2023-05-09T10:40:48.620Z,8.52
2023-05-09T10:43:16.876Z,7.38
2023-05-09T10:45:45.214Z,6.80
2023-05-09T10:48:14.337Z,7.47
2023-05-09T10:50:42.613Z,10.88
2023-05-09T10:53:16.871Z,6.80
2023-05-09T10:55:58.499Z,6.63
2023-05-09T10:58:28.405Z,8.43
2023-05-09T11:00:57.574Z,6.55
2023-05-09T11:03:25.966Z,7.18
2023-05-09T11:05:56.389Z,7.78
2023-05-09T11:08:26.757Z,7.15
2023-05-09T11:10:57.440Z,7.50
2023-05-09T11:13:27.353Z,6.70
2023-05-09T11:16:14.017Z,6.75
2023-05-09T11:18:53.348Z,6.57
2023-05-09T11:21:22.165Z,6.82
2023-05-09T11:23:52.954Z,7.97
2023-05-09T11:26:30.717Z,6.88
2023-05-09T11:29:02.781Z,6.80
2023-05-09T11:31:31.275Z,8.52
2023-05-09T11:34:04.893Z,6.90
2023-05-09T11:36:33.885Z,7.03
2023-05-09T11:39:07.567Z,6.50
2023-05-09T11:41:48.329Z,6.22
2023-05-09T11:44:18.349Z,6.50
2023-05-09T11:46:47.556Z,7.55
2023-05-09T11:49:15.932Z,6.30
2023-05-09T11:51:43.872Z,6.27
2023-05-09T11:54:14.764Z,8.68
2023-05-09T11:56:44.212Z,6.80
2023-05-09T11:59:14.716Z,5.88
2023-05-09T12:01:42.782Z,6.68
2023-05-09T12:04:10.771Z,6.05
2023-05-09T12:06:39.342Z,6.80
2023-05-09T12:09:07.317Z,6.27
2023-05-09T12:11:37.048Z,6.28
2023-05-09T12:14:06.407Z,5.70
2023-05-09T12:16:34.378Z,6.25
2023-05-09T12:19:02.285Z,5.78
2023-05-09T12:21:30.182Z,5.82
2023-05-09T12:23:58.119Z,5.50
2023-05-09T12:26:27.103Z,5.35
2023-05-09T12:28:55.435Z,6.07
2023-05-09T12:31:24.891Z,6.80
2023-05-09T12:33:52.971Z,5.43
2023-05-09T12:36:20.837Z,5.32
2023-05-09T12:38:55.608Z,5.70
2023-05-09T12:41:36.992Z,5.97
2023-05-09T12:44:09.927Z,4.30
2023-05-09T12:46:39.376Z,5.22
2023-05-09T12:49:07.363Z,5.00
2023-05-09T12:51:35.314Z,4.68
2023-05-09T12:54:05.962Z,4.35
2023-05-09T12:56:36.150Z,3.60
2023-05-09T12:59:04.158Z,3.50
2023-05-09T13:01:32.015Z,3.15
2023-05-09T13:04:05.772Z,2.60
2023-05-09T13:06:33.750Z,2.22
2023-05-09T13:09:04.290Z,2.90
2023-05-09T13:11:32.400Z,2.72
2023-05-09T13:14:02.289Z,2.75
2023-05-09T13:16:30.449Z,2.00
2023-05-09T13:18:58.338Z,2.10
2023-05-09T13:21:27.603Z,2.10
2023-05-09T13:23:55.725Z,2.22
2023-05-09T13:26:23.750Z,2.50
2023-05-09T13:28:51.619Z,4.00
2023-05-09T13:31:19.801Z,2.63
2023-05-09T13:33:49.322Z,2.40
2023-05-09T13:36:19.639Z,2.20
2023-05-09T13:38:48.946Z,2.20
2023-05-09T13:41:20.822Z,2.70
2023-05-09T13:43:49.063Z,2.60
2023-05-09T13:46:17.398Z,2.60
2023-05-09T13:48:45.397Z,2.20
2023-05-09T13:51:13.947Z,2.40
2023-05-09T13:53:41.918Z,2.80
2023-05-09T13:56:11.702Z,2.70
2023-05-09T13:58:39.527Z,3.90
2023-05-09T14:01:07.851Z,2.90
2023-05-09T14:03:35.877Z,2.20
2023-05-09T14:06:04.265Z,2.20
2023-05-09T14:08:32.258Z,4.50
2023-05-09T14:11:00.205Z,1.95
2023-05-09T14:13:31.835Z,1.80
2023-05-09T14:15:59.890Z,2.53
2023-05-09T14:18:27.903Z,2.70
2023-05-09T14:20:56.413Z,1.60
2023-05-09T14:23:24.400Z,4.32
2023-05-09T14:25:52.351Z,1.70
2023-05-09T14:28:20.258Z,1.80
2023-05-09T14:30:49.513Z,2.50
2023-05-09T14:33:17.399Z,2.30
2023-05-09T14:35:45.322Z,2.20
2023-05-09T14:38:13.703Z,2.70
2023-05-09T14:40:41.587Z,1.98
2023-05-09T14:43:09.496Z,2.20
2023-05-09T14:45:37.579Z,2.25
2023-05-09T14:48:07.175Z,3.58
2023-05-09T14:50:35.204Z,2.05
2023-05-09T14:53:03.753Z,2.40
2023-05-09T14:55:32.389Z,2.35
2023-05-09T14:58:00.276Z,2.10
2023-05-09T15:00:28.755Z,2.60
2023-05-09T15:02:57.601Z,2.50
2023-05-09T15:05:27.093Z,3.10
2023-05-09T15:07:55.012Z,2.10
2023-05-09T15:10:23.395Z,2.22
2023-05-09T15:12:51.323Z,2.38
2023-05-09T15:15:21.354Z,2.10
2023-05-09T15:17:49.202Z,2.10
2023-05-09T15:20:18.667Z,1.98
2023-05-09T15:22:48.921Z,2.20
2023-05-09T15:25:17.305Z,2.30
2023-05-09T15:27:45.171Z,2.70
2023-05-09T15:30:14.068Z,1.90
2023-05-09T15:32:42.261Z,2.10
2023-05-09T15:35:10.617Z,2.03
2023-05-09T15:37:38.764Z,2.20
2023-05-09T15:40:09.365Z,2.22
2023-05-09T15:42:37.401Z,2.60
2023-05-09T15:45:06.447Z,2.55
2023-05-09T15:47:34.543Z,2.40
2023-05-09T15:50:02.718Z,2.10
2023-05-09T15:52:30.961Z,2.00
2023-05-09T15:54:59.524Z,2.20
2023-05-09T15:57:28.906Z,2.00
2023-05-09T15:59:56.773Z,2.30
2023-05-09T16:02:24.792Z,2.22
2023-05-09T16:04:52.805Z,2.20
2023-05-09T16:07:20.943Z,2.40
2023-05-09T16:09:48.939Z,3.20
2023-05-09T16:12:16.930Z,3.20
2023-05-09T16:14:46.463Z,2.00
2023-05-09T16:17:14.413Z,2.08
2023-05-09T16:19:42.342Z,1.70
2023-05-09T16:22:10.475Z,1.63
2023-05-09T16:24:38.486Z,1.50
2023-05-09T16:27:06.344Z,1.63
2023-05-09T16:29:34.234Z,1.65
2023-05-09T16:32:03.737Z,1.60
2023-05-09T16:34:31.816Z,1.63
2023-05-09T16:36:59.796Z,2.28
2023-05-09T16:39:28.274Z,2.10
2023-05-09T16:41:58.590Z,2.00
2023-05-09T16:44:26.661Z,1.80
2023-05-09T16:46:54.761Z,2.13
2023-05-09T16:49:24.042Z,2.40
2023-05-09T16:51:52.007Z,2.53
2023-05-09T16:54:19.848Z,2.50
2023-05-09T16:56:47.731Z,2.40
2023-05-09T16:59:15.698Z,2.33
2023-05-09T17:01:43.699Z,2.00
2023-05-09T17:04:11.737Z,1.80
2023-05-09T17:06:41.098Z,2.65
2023-05-09T17:09:08.962Z,2.35
2023-05-09T17:11:36.923Z,2.20
2023-05-09T17:14:04.913Z,2.50
2023-05-09T17:16:33.178Z,2.97
2023-05-09T17:19:02.184Z,2.90
2023-05-09T17:21:30.801Z,3.10
2023-05-09T17:24:01.996Z,3.80
2023-05-09T17:26:30.480Z,3.15
2023-05-09T17:28:58.393Z,3.20
2023-05-09T17:31:26.566Z,3.13
2023-05-09T17:33:54.576Z,6.10
2023-05-09T17:36:22.570Z,3.20
2023-05-09T17:38:50.470Z,3.00
2023-05-09T17:41:19.782Z,3.10
2023-05-09T17:43:47.711Z,2.80
2023-05-09T17:46:15.945Z,2.50
2023-05-09T17:48:44.562Z,2.30
2023-05-09T17:51:12.552Z,2.17
2023-05-09T17:53:40.536Z,2.20
2023-05-09T17:56:08.441Z,1.90
2023-05-09T17:58:37.716Z,1.70
2023-05-09T18:01:05.761Z,2.03
2023-05-09T18:03:34.153Z,2.37
2023-05-09T18:06:02.322Z,1.63
2023-05-09T18:08:30.519Z,3.90
2023-05-09T18:10:58.610Z,2.40
2023-05-09T18:13:26.785Z,5.57
2023-05-09T18:15:59.626Z,3.00
2023-05-09T18:18:28.782Z,3.80
2023-05-09T18:20:56.839Z,2.90
2023-05-09T18:23:25.544Z,1.40
2023-05-09T18:25:54.899Z,1.60
2023-05-09T18:28:25.375Z,1.40
2023-05-09T18:30:55.482Z,1.42
2023-05-09T18:33:24.800Z,1.30
2023-05-09T18:35:54.268Z,1.30
2023-05-09T18:38:22.736Z,1.52
2023-05-09T18:40:52.019Z,1.35
2023-05-09T18:43:21.635Z,2.10
2023-05-09T18:45:50.023Z,1.30
2023-05-09T18:48:19.415Z,1.75
2023-05-09T18:50:47.392Z,2.00
2023-05-09T18:53:15.559Z,1.80
2023-05-09T18:55:43.766Z,2.90
2023-05-09T18:58:12.328Z,2.00
2023-05-09T19:00:40.365Z,1.92
2023-05-09T19:03:08.384Z,2.20
2023-05-09T19:05:37.737Z,3.30
2023-05-09T19:08:06.111Z,2.60
2023-05-09T19:10:35.099Z,2.45
2023-05-09T19:13:03.141Z,2.90
2023-05-09T19:15:31.016Z,3.50
2023-05-09T19:17:58.918Z,2.20
2023-05-09T19:20:26.934Z,2.13
2023-05-09T19:22:56.175Z,1.77
2023-05-09T19:25:24.108Z,2.10
2023-05-09T19:27:52.671Z,2.90
2023-05-09T19:30:21.484Z,3.00
2023-05-09T19:32:49.705Z,2.00
2023-05-09T19:35:17.660Z,2.20
2023-05-09T19:37:45.575Z,2.42
2023-05-09T19:40:15.073Z,2.70
2023-05-09T19:42:43.185Z,3.10
2023-05-09T19:45:11.919Z,2.70
2023-05-09T19:47:39.825Z,2.90
2023-05-09T19:50:08.865Z,2.70
2023-05-09T19:52:37.324Z,3.30
2023-05-09T19:55:05.944Z,2.85
2023-05-09T19:57:35.218Z,2.90
2023-05-09T20:00:03.286Z,3.57
2023-05-09T20:02:31.327Z,3.90
2023-05-09T20:04:59.493Z,3.90
2023-05-09T20:07:27.726Z,3.90
2023-05-09T20:09:55.761Z,4.43
2023-05-09T20:12:23.816Z,4.38
2023-05-09T20:14:53.172Z,4.75
2023-05-09T20:17:21.297Z,4.70
2023-05-09T20:19:49.247Z,4.80
2023-05-09T20:22:17.275Z,5.00
2023-05-09T20:24:45.759Z,5.30
2023-05-09T20:27:13.746Z,5.75
2023-05-09T20:29:41.766Z,5.30
2023-05-09T20:32:11.525Z,6.45
2023-05-09T20:34:39.534Z,6.90
2023-05-09T20:37:07.871Z,6.68
2023-05-09T20:39:35.872Z,7.18
2023-05-09T20:42:05.940Z,8.43
2023-05-09T20:44:34.016Z,7.55
2023-05-09T20:47:02.061Z,7.25
2023-05-09T20:49:31.405Z,10.98
2023-05-09T20:51:59.431Z,8.43
2023-05-09T20:54:27.855Z,10.75
2023-05-09T20:56:55.883Z,9.25
2023-05-09T20:59:23.926Z,10.63
2023-05-09T21:01:52.566Z,10.43
2023-05-09T21:04:21.122Z,11.13
2023-05-09T21:06:50.530Z,10.50
2023-05-09T21:09:18.829Z,10.90
2023-05-09T21:11:46.850Z,17.38
2023-05-09T21:14:14.927Z,14.75
2023-05-09T21:16:43.850Z,16.40
2023-05-09T21:19:12.004Z,16.33
2023-05-09T21:21:40.033Z,17.80
2023-05-09T21:24:09.837Z,16.33
2023-05-09T21:26:37.825Z,16.80
2023-05-09T21:29:06.548Z,19.80
2023-05-09T21:31:34.718Z,18.90
2023-05-09T21:34:02.837Z,22.17
2023-05-09T21:36:30.794Z,23.47
2023-05-09T21:38:58.774Z,23.05
2023-05-09T21:41:28.157Z,21.15
2023-05-09T21:43:56.171Z,25.88
2023-05-09T21:46:24.295Z,22.10
2023-05-09T21:48:52.396Z,23.20
2023-05-09T21:51:20.461Z,24.73
2023-05-09T21:53:48.463Z,24.95
2023-05-09T21:56:16.470Z,23.58
2023-05-09T21:58:45.650Z,24.35
2023-05-09T22:01:14.016Z,23.40
2023-05-09T22:03:42.028Z,23.85
2023-05-09T22:06:09.955Z,27.02
2023-05-09T22:08:37.809Z,22.33
2023-05-09T22:11:05.803Z,24.10
2023-05-09T22:13:33.675Z,24.60
2023-05-09T22:16:03.750Z,24.77
2023-05-09T22:18:31.923Z,21.65
2023-05-09T22:21:00.378Z,25.83
2023-05-09T22:23:28.285Z,26.27
2023-05-09T22:25:56.151Z,22.67
2023-05-09T22:28:24.018Z,25.63
2023-05-09T22:30:51.895Z,25.42
2023-05-09T22:33:21.443Z,22.65
2023-05-09T22:35:51.741Z,23.20
2023-05-09T22:38:19.635Z,22.10
2023-05-09T22:40:47.506Z,21.77
2023-05-09T22:43:15.449Z,24.25
2023-05-09T22:45:43.837Z,23.92
2023-05-09T22:48:11.752Z,23.55
2023-05-09T22:50:41.072Z,23.73
2023-05-09T22:53:09.192Z,26.02
2023-05-09T22:55:37.523Z,22.45
2023-05-09T22:58:05.562Z,23.42
2023-05-09T23:00:33.508Z,22.27
2023-05-09T23:03:03.290Z,24.15
2023-05-09T23:05:31.396Z,22.13
2023-05-09T23:08:00.633Z,25.98
2023-05-09T23:10:28.560Z,21.00
2023-05-09T23:12:56.597Z,25.23
2023-05-09T23:15:24.452Z,21.15
2023-05-09T23:17:52.370Z,26.52
2023-05-09T23:20:20.479Z,25.73
2023-05-09T23:22:48.373Z,22.93
2023-05-09T23:25:17.565Z,23.05
2023-05-09T23:27:46.784Z,27.52
2023-05-09T23:30:15.007Z,25.88
2023-05-09T23:32:43.193Z,26.05
2023-05-09T23:35:11.821Z,26.17
2023-05-09T23:37:39.706Z,26.30
2023-05-09T23:40:08.832Z,24.77
2023-05-09T23:42:38.088Z,25.83
2023-05-09T23:45:06.825Z,27.60
2023-05-09T23:47:34.691Z,25.87
2023-05-09T23:50:03.004Z,25.10
2023-05-09T23:52:30.953Z,24.67
2023-05-09T23:54:58.848Z,26.98
2023-05-09T23:57:27.258Z,27.02
2023-05-09T23:59:56.500Z,27.42
